createdAt,value
2022-08-02T00:06:28.477Z,22.70
2022-08-02T00:16:37.487Z,22.60
2022-08-02T00:26:40.430Z,22.50
2022-08-02T00:36:42.419Z,22.50
2022-08-02T00:46:44.444Z,22.50
2022-08-02T00:56:49.659Z,22.50
2022-08-02T01:06:53.005Z,22.40
2022-08-02T01:17:07.246Z,22.50
2022-08-02T01:27:34.342Z,22.40
2022-08-02T01:37:55.862Z,22.30
2022-08-02T01:47:59.484Z,22.10
2022-08-02T01:58:05.780Z,22.00
2022-08-02T02:08:09.534Z,21.90
2022-08-02T02:18:14.763Z,21.80
2022-08-02T02:28:30.089Z,21.70
2022-08-02T02:38:34.117Z,21.80
2022-08-02T02:48:36.960Z,21.70
2022-08-02T02:58:39.625Z,21.80
2022-08-02T03:08:41.514Z,21.80
2022-08-02T03:18:44.564Z,21.70
2022-08-02T03:28:46.673Z,21.60
2022-08-02T03:38:51.247Z,21.60
2022-08-02T03:48:54.683Z,21.60
2022-08-02T03:59:13.551Z,21.40
2022-08-02T04:09:15.344Z,21.30
2022-08-02T04:19:31.566Z,21.30
2022-08-02T04:29:34.066Z,21.10
2022-08-02T04:39:35.870Z,21.10
2022-08-02T04:49:37.629Z,21.10
2022-08-02T04:59:39.377Z,21.00
2022-08-02T05:09:41.278Z,21.10
2022-08-02T05:19:42.994Z,21.10
2022-08-02T05:29:51.068Z,21.20
2022-08-02T05:39:55.076Z,21.40
2022-08-02T05:49:58.043Z,21.40
2022-08-02T06:00:11.747Z,21.30
2022-08-02T06:10:15.126Z,21.50
2022-08-02T06:20:16.918Z,21.70
2022-08-02T06:30:18.635Z,21.90
2022-08-02T06:40:45.585Z,22.10
2022-08-02T06:50:47.498Z,22.20
2022-08-02T07:00:49.422Z,22.30
2022-08-02T07:10:51.167Z,22.50
2022-08-02T07:20:53.050Z,22.70
2022-08-02T07:30:54.766Z,23.00
2022-08-02T07:40:56.480Z,23.20
2022-08-02T07:50:58.263Z,23.40
2022-08-02T08:01:01.564Z,23.70
2022-08-02T08:11:03.451Z,23.90
2022-08-02T08:21:06.186Z,24.10
2022-08-02T08:31:07.980Z,24.40
2022-08-02T08:41:09.829Z,24.50
2022-08-02T08:51:18.168Z,24.70
2022-08-02T09:01:20.625Z,24.90
2022-08-02T09:11:26.102Z,25.10
2022-08-02T09:21:36.774Z,25.30
2022-08-02T09:31:41.660Z,25.50
2022-08-02T09:41:51.557Z,25.80
2022-08-02T09:51:54.784Z,26.00
2022-08-02T10:02:01.812Z,26.10
2022-08-02T10:12:06.516Z,26.30
2022-08-02T10:22:13.514Z,26.50
2022-08-02T10:32:34.440Z,26.70
2022-08-02T10:42:45.224Z,26.80
2022-08-02T10:52:46.933Z,26.80
2022-08-02T11:02:54.109Z,26.80
2022-08-02T11:13:04.440Z,27.00
2022-08-02T11:23:44.923Z,27.10
2022-08-02T11:33:50.392Z,27.20
2022-08-02T11:43:56.093Z,27.30
2022-08-02T11:53:58.045Z,27.50
2022-08-02T12:04:01.050Z,27.80
2022-08-02T12:14:03.901Z,28.00
2022-08-02T12:24:07.384Z,28.40
2022-08-02T12:34:17.490Z,28.30
2022-08-02T12:44:19.708Z,28.40
2022-08-02T12:54:31.519Z,28.60
2022-08-02T13:04:34.678Z,28.70
2022-08-02T13:14:41.955Z,28.80
2022-08-02T13:24:56.273Z,28.80
2022-08-02T13:34:59.302Z,28.80
2022-08-02T13:45:11.764Z,28.80
2022-08-02T13:55:15.758Z,28.70
2022-08-02T14:05:17.504Z,28.80
2022-08-02T14:15:39.469Z,28.90
2022-08-02T14:25:41.296Z,29.00
2022-08-02T14:35:43.054Z,29.00
2022-08-02T14:45:44.809Z,29.40
2022-08-02T14:55:46.565Z,29.40
2022-08-02T15:05:48.275Z,30.30
2022-08-02T15:15:50.837Z,30.00
2022-08-02T15:25:52.865Z,29.60
2022-08-02T15:35:54.592Z,29.40
2022-08-02T15:45:56.575Z,29.30
2022-08-02T15:56:05.392Z,29.20
2022-08-02T16:06:10.780Z,29.10
2022-08-02T16:16:12.524Z,29.00
2022-08-02T16:26:14.259Z,29.00
2022-08-02T16:36:16.134Z,28.90
2022-08-02T16:46:21.308Z,28.80
2022-08-02T16:56:23.228Z,28.70
2022-08-02T17:06:26.332Z,28.60
2022-08-02T17:16:29.252Z,28.50
2022-08-02T17:26:31.017Z,28.40
2022-08-02T17:36:32.735Z,28.30
2022-08-02T17:46:34.443Z,28.30
2022-08-02T17:56:36.651Z,28.20
2022-08-02T18:06:49.836Z,28.10
2022-08-02T18:16:51.608Z,27.90
2022-08-02T18:26:53.418Z,27.80
2022-08-02T18:36:55.196Z,27.60
2022-08-02T18:46:57.318Z,27.40
2022-08-02T18:57:00.953Z,27.20
2022-08-02T19:07:08.269Z,27.00
2022-08-02T19:17:16.052Z,26.80
2022-08-02T19:27:33.204Z,26.70
2022-08-02T19:37:38.482Z,26.40
2022-08-02T19:47:41.444Z,26.20
2022-08-02T19:57:56.020Z,25.90
2022-08-02T20:07:59.550Z,25.60
2022-08-02T20:18:01.275Z,25.40
2022-08-02T20:28:04.752Z,25.10
2022-08-02T20:38:07.904Z,25.00
2022-08-02T20:48:13.727Z,24.80
2022-08-02T20:58:18.726Z,24.40
2022-08-02T21:08:21.792Z,24.30
2022-08-02T21:18:33.188Z,24.20
2022-08-02T21:28:45.081Z,23.90
2022-08-02T21:38:47.020Z,23.70
2022-08-02T21:48:49.931Z,23.60
2022-08-02T21:58:51.859Z,23.40
2022-08-02T22:08:54.118Z,23.20
2022-08-02T22:18:58.205Z,23.00
2022-08-02T22:29:02.127Z,22.80
2022-08-02T22:39:19.133Z,22.60
2022-08-02T22:49:37.721Z,22.50
2022-08-02T22:59:43.008Z,22.30
2022-08-02T23:09:44.789Z,22.10
2022-08-02T23:19:52.282Z,22.00
2022-08-02T23:29:54.062Z,21.80
2022-08-02T23:39:55.845Z,21.70
2022-08-02T23:49:57.573Z,21.50
2022-08-02T23:59:59.463Z,21.30
